Norse Mersey — IBEN — position and weather

sailwx.info

Track history (hours):
 
Tides and Currents Weather Stations Pressure Air Temp Water Temp Dewpoint Dewpoint Depression Visibility Wind Speed Wind Dir Waves Ship Positions

Norse Mersey

Operator: Norse Merchant Ferries

Last reported at 2017-Jan-19 11:21 UTC. Time now 2017-Jan-20 01:47 UTC.
Position N 38°60' E 009°25'.

Length 175 m; draft 6 m.

Type: Ship (hazmat cat A). MMSI: 247026000.

Date/timePositionNaut miles runAvg speedWind from/ knotsBaromVisibWave heightAir tempDewpointWater temp
2017-Jan-19 11:21N 38°60' E 009°25'1214.9
2017-Jan-19 10:33N 39°07' E 009°13'8 7.8
2017-Jan-19 09:33N 39°13' E 009°06'0 0.0
2017-Jan-19 08:33N 39°13' E 009°06'0 0.0
2017-Jan-19 07:33N 39°13' E 009°06'0 0.0
2017-Jan-19 06:33N 39°13' E 009°06'0 0.0
2017-Jan-19 05:33N 39°13' E 009°06'0 0.0
2017-Jan-19 04:33N 39°13' E 009°06'0 0.0
2017-Jan-19 03:33N 39°13' E 009°06'0 0.0
2017-Jan-19 02:33N 39°13' E 009°06'0 0.3
2017-Jan-19 01:33N 39°12' E 009°06'8 7.6
2017-Jan-19 00:33N 39°07' E 009°13'24512.7
2017-Jan-18 05:15N 43°06' E 010°23'1115.4
2017-Jan-18 04:33N 43°16' E 010°18'1515.0
2017-Jan-18 03:34N 43°31' E 010°13'5 5.3
2017-Jan-18 02:32N 43°35' E 010°18'0 0.0
2017-Jan-18 01:26N 43°35' E 010°18'0 0.0
2017-Jan-18 00:32N 43°35' E 010°18'0 0.0
2017-Jan-17 23:32N 43°35' E 010°18'0 0.0
2017-Jan-17 22:32N 43°35' E 010°18'0 0.0
2017-Jan-17 21:32N 43°35' E 010°18'0 0.5
2017-Jan-17 20:34N 43°34' E 010°18'7 6.7
2017-Jan-17 19:34N 43°29' E 010°13'1313.0
2017-Jan-17 18:34N 43°16' E 010°18'25811.2
2017-Jan-16 19:32N 39°02' E 009°24'1514.9
2017-Jan-16 18:32N 39°10' E 009°08'3 3.0
2017-Jan-16 17:32N 39°13' E 009°06'0 0.0
2017-Jan-16 16:32N 39°13' E 009°06'0 0.0
2017-Jan-16 15:32N 39°13' E 009°06'0 0.0
2017-Jan-16 14:32N 39°13' E 009°06'0 0.0
2017-Jan-16 13:32N 39°13' E 009°06'0 0.0
2017-Jan-16 12:32N 39°13' E 009°06'0 0.0
2017-Jan-16 11:32N 39°13' E 009°06'0 0.0
2017-Jan-16 10:32N 39°13' E 009°06'0 0.0
2017-Jan-16 09:32N 39°13' E 009°06'3 2.7
2017-Jan-16 08:33N 39°10' E 009°07'1312.7
2017-Jan-16 07:33N 39°02' E 009°20'25013.8
2017-Jan-15 13:24N 43°08' E 010°22'1315.3
2017-Jan-15 12:33N 43°20' E 010°16'1212.4
2017-Jan-15 11:33N 43°32' E 010°16'3 2.9
2017-Jan-15 10:32N 43°35' E 010°18'0 0.0
2017-Jan-15 09:32N 43°35' E 010°18'0 0.0
2017-Jan-15 08:32N 43°35' E 010°18'0 0.0
2017-Jan-15 07:32N 43°35' E 010°18'0 0.0
2017-Jan-15 06:29N 43°35' E 010°18'0 0.0
2017-Jan-15 05:33N 43°35' E 010°18'3 3.1
2017-Jan-15 04:33N 43°32' E 010°17'8 8.3
2017-Jan-15 03:34N 43°25' E 010°10'1414.3
2017-Jan-15 02:33N 43°11' E 010°05'1714.8
2017-Jan-15 01:25N 42°55' E 009°58'23714.6
2017-Jan-14 09:15N 38°59' E 009°33'1115.0
2017-Jan-14 08:33N 39°03' E 009°20'1413.6
2017-Jan-14 07:33N 39°12' E 009°07'1 0.6
2017-Jan-14 06:33N 39°13' E 009°06'0 0.0
2017-Jan-14 05:33N 39°13' E 009°06'0 0.0
2017-Jan-14 04:33N 39°13' E 009°06'0 0.0
2017-Jan-14 03:33N 39°13' E 009°06'23111.0
2017-Jan-13 06:32N 43°00' E 009°60'1212.7
2017-Jan-13 05:33N 43°12' E 010°05'1212.1
2017-Jan-13 04:34N 43°23' E 010°10'1111.1
2017-Jan-13 03:33N 43°33' E 010°17'2 1.9
2017-Jan-13 02:31N 43°35' E 010°18'0 0.0
2017-Jan-13 01:31N 43°35' E 010°18'0 0.0
2017-Jan-13 00:31N 43°35' E 010°18'0 0.0
2017-Jan-12 23:31N 43°35' E 010°18'0 0.0
2017-Jan-12 22:31N 43°35' E 010°18'1 1.1
2017-Jan-12 21:34N 43°34' E 010°18'7 7.4
2017-Jan-12 20:34N 43°28' E 010°12'1515.2
2017-Jan-12 19:33N 43°14' E 010°02'25815.0
2017-Jan-12 02:24N 38°57' E 009°31'1315.4
2017-Jan-12 01:33N 39°05' E 009°17'1211.8
2017-Jan-12 00:33N 39°13' E 009°06'0 0.0
2017-Jan-11 23:33N 39°13' E 009°06'0 0.0
2017-Jan-11 22:33N 39°13' E 009°06'0 0.0
2017-Jan-11 21:33N 39°13' E 009°06'0 0.0
2017-Jan-11 20:33N 39°13' E 009°06'0 0.0
2017-Jan-11 19:33N 39°13' E 009°06'0 0.0
2017-Jan-11 18:33N 39°13' E 009°06'0 0.0
2017-Jan-11 17:32N 39°13' E 009°06'8 7.8
2017-Jan-11 16:33N 39°07' E 009°13'23313.4
2017-Jan-10 23:14N 42°57' E 010°00'1015.0
2017-Jan-10 22:33N 43°07' E 010°03'1515.2
2017-Jan-10 21:33N 43°22' E 010°08'1313.0
2017-Jan-10 20:33N 43°33' E 010°17'2 2.3
2017-Jan-10 19:31N 43°35' E 010°18'0 0.0
2017-Jan-10 18:28N 43°35' E 010°18'0 0.0
2017-Jan-10 17:31N 43°35' E 010°18'0 0.0
2017-Jan-10 16:28N 43°35' E 010°18'0 0.0
2017-Jan-10 15:25N 43°35' E 010°18'0 0.0
2017-Jan-10 14:31N 43°35' E 010°18'0 0.0
2017-Jan-10 13:28N 43°35' E 010°18'0 0.0
2017-Jan-10 12:31N 43°35' E 010°18'0 0.0
2017-Jan-10 11:31N 43°35' E 010°18'0 0.0
2017-Jan-10 10:31N 43°35' E 010°18'0 0.0
2017-Jan-10 09:31N 43°35' E 010°18'0 0.0
2017-Jan-10 08:31N 43°35' E 010°18'0 0.0
2017-Jan-10 07:25N 43°35' E 010°18'0 0.0
2017-Jan-10 06:31N 43°35' E 010°18'0 0.0
2017-Jan-10 05:31N 43°35' E 010°18'0 0.0
2017-Jan-10 04:31N 43°35' E 010°18'0 0.0
2017-Jan-10 03:31N 43°35' E 010°18'0 0.0
2017-Jan-10 02:31N 43°35' E 010°18'0 0.0
2017-Jan-10 01:28N 43°35' E 010°18'0 0.0
2017-Jan-10 00:31N 43°35' E 010°18'0 0.0
2017-Jan-09 23:31N 43°35' E 010°18'0 0.0
2017-Jan-09 22:31N 43°35' E 010°18'0 0.0
2017-Jan-09 21:31N 43°35' E 010°18'0 0.0
2017-Jan-09 20:31N 43°35' E 010°18'0 0.0
2017-Jan-09 19:28N 43°35' E 010°18'0 0.0
2017-Jan-09 18:31N 43°35' E 010°18'0 0.0
2017-Jan-09 17:28N 43°35' E 010°18'0 0.0
2017-Jan-09 16:31N 43°35' E 010°18'0 0.0
2017-Jan-09 15:31N 43°35' E 010°18'0 0.0
2017-Jan-09 14:28N 43°35' E 010°18'0 0.0
2017-Jan-09 13:31N 43°35' E 010°18'0 0.0
2017-Jan-09 12:31N 43°35' E 010°18'0 0.0
2017-Jan-09 11:28N 43°35' E 010°18'  
Track history (hours):
 
Tides and Currents Weather Stations Pressure Air Temp Water Temp Dewpoint Dewpoint Depression Visibility Wind Speed Wind Dir Waves Ship Positions

Norse Mersey

Operator: Norse Merchant Ferries

Last reported at 2017-Jan-19 11:21 UTC. Time now 2017-Jan-20 01:47 UTC.
Position N 38°60' E 009°25'.

Length 175 m; draft 6 m.

Type: Ship (hazmat cat A). MMSI: 247026000.

Date/timePositionNaut miles runAvg speedWind from/ knotsBaromVisibWave heightAir tempDewpointWater temp
2017-Jan-19 11:21N 38°60' E 009°25'1214.9
2017-Jan-19 10:33N 39°07' E 009°13'8 7.8
2017-Jan-19 09:33N 39°13' E 009°06'0 0.0
2017-Jan-19 08:33N 39°13' E 009°06'0 0.0
2017-Jan-19 07:33N 39°13' E 009°06'0 0.0
2017-Jan-19 06:33N 39°13' E 009°06'0 0.0
2017-Jan-19 05:33N 39°13' E 009°06'0 0.0
2017-Jan-19 04:33N 39°13' E 009°06'0 0.0
2017-Jan-19 03:33N 39°13' E 009°06'0 0.0
2017-Jan-19 02:33N 39°13' E 009°06'0 0.3
2017-Jan-19 01:33N 39°12' E 009°06'8 7.6
2017-Jan-19 00:33N 39°07' E 009°13'24512.7
2017-Jan-18 05:15N 43°06' E 010°23'1115.4
2017-Jan-18 04:33N 43°16' E 010°18'1515.0
2017-Jan-18 03:34N 43°31' E 010°13'5 5.3
2017-Jan-18 02:32N 43°35' E 010°18'0 0.0
2017-Jan-18 01:26N 43°35' E 010°18'0 0.0
2017-Jan-18 00:32N 43°35' E 010°18'0 0.0
2017-Jan-17 23:32N 43°35' E 010°18'0 0.0
2017-Jan-17 22:32N 43°35' E 010°18'0 0.0
2017-Jan-17 21:32N 43°35' E 010°18'0 0.5
2017-Jan-17 20:34N 43°34' E 010°18'7 6.7
2017-Jan-17 19:34N 43°29' E 010°13'1313.0
2017-Jan-17 18:34N 43°16' E 010°18'25811.2
2017-Jan-16 19:32N 39°02' E 009°24'1514.9
2017-Jan-16 18:32N 39°10' E 009°08'3 3.0
2017-Jan-16 17:32N 39°13' E 009°06'0 0.0
2017-Jan-16 16:32N 39°13' E 009°06'0 0.0
2017-Jan-16 15:32N 39°13' E 009°06'0 0.0
2017-Jan-16 14:32N 39°13' E 009°06'0 0.0
2017-Jan-16 13:32N 39°13' E 009°06'0 0.0
2017-Jan-16 12:32N 39°13' E 009°06'0 0.0
2017-Jan-16 11:32N 39°13' E 009°06'0 0.0
2017-Jan-16 10:32N 39°13' E 009°06'0 0.0
2017-Jan-16 09:32N 39°13' E 009°06'3 2.7
2017-Jan-16 08:33N 39°10' E 009°07'1312.7
2017-Jan-16 07:33N 39°02' E 009°20'25013.8
2017-Jan-15 13:24N 43°08' E 010°22'1315.3
2017-Jan-15 12:33N 43°20' E 010°16'1212.4
2017-Jan-15 11:33N 43°32' E 010°16'3 2.9
2017-Jan-15 10:32N 43°35' E 010°18'0 0.0
2017-Jan-15 09:32N 43°35' E 010°18'0 0.0
2017-Jan-15 08:32N 43°35' E 010°18'0 0.0
2017-Jan-15 07:32N 43°35' E 010°18'0 0.0
2017-Jan-15 06:29N 43°35' E 010°18'0 0.0
2017-Jan-15 05:33N 43°35' E 010°18'3 3.1
2017-Jan-15 04:33N 43°32' E 010°17'8 8.3
2017-Jan-15 03:34N 43°25' E 010°10'1414.3
2017-Jan-15 02:33N 43°11' E 010°05'1714.8
2017-Jan-15 01:25N 42°55' E 009°58'23714.6
2017-Jan-14 09:15N 38°59' E 009°33'1115.0
2017-Jan-14 08:33N 39°03' E 009°20'1413.6
2017-Jan-14 07:33N 39°12' E 009°07'1 0.6
2017-Jan-14 06:33N 39°13' E 009°06'0 0.0
2017-Jan-14 05:33N 39°13' E 009°06'0 0.0
2017-Jan-14 04:33N 39°13' E 009°06'0 0.0
2017-Jan-14 03:33N 39°13' E 009°06'23111.0
2017-Jan-13 06:32N 43°00' E 009°60'1212.7
2017-Jan-13 05:33N 43°12' E 010°05'1212.1
2017-Jan-13 04:34N 43°23' E 010°10'1111.1
2017-Jan-13 03:33N 43°33' E 010°17'2 1.9
2017-Jan-13 02:31N 43°35' E 010°18'0 0.0
2017-Jan-13 01:31N 43°35' E 010°18'0 0.0
2017-Jan-13 00:31N 43°35' E 010°18'0 0.0
2017-Jan-12 23:31N 43°35' E 010°18'0 0.0
2017-Jan-12 22:31N 43°35' E 010°18'1 1.1
2017-Jan-12 21:34N 43°34' E 010°18'7 7.4
2017-Jan-12 20:34N 43°28' E 010°12'1515.2
2017-Jan-12 19:33N 43°14' E 010°02'25815.0
2017-Jan-12 02:24N 38°57' E 009°31'1315.4
2017-Jan-12 01:33N 39°05' E 009°17'1211.8
2017-Jan-12 00:33N 39°13' E 009°06'0 0.0
2017-Jan-11 23:33N 39°13' E 009°06'0 0.0
2017-Jan-11 22:33N 39°13' E 009°06'0 0.0
2017-Jan-11 21:33N 39°13' E 009°06'0 0.0
2017-Jan-11 20:33N 39°13' E 009°06'0 0.0
2017-Jan-11 19:33N 39°13' E 009°06'0 0.0
2017-Jan-11 18:33N 39°13' E 009°06'0 0.0
2017-Jan-11 17:32N 39°13' E 009°06'8 7.8
2017-Jan-11 16:33N 39°07' E 009°13'23313.4
2017-Jan-10 23:14N 42°57' E 010°00'1015.0
2017-Jan-10 22:33N 43°07' E 010°03'1515.2
2017-Jan-10 21:33N 43°22' E 010°08'1313.0
2017-Jan-10 20:33N 43°33' E 010°17'2 2.3
2017-Jan-10 19:31N 43°35' E 010°18'0 0.0
2017-Jan-10 18:28N 43°35' E 010°18'0 0.0
2017-Jan-10 17:31N 43°35' E 010°18'0 0.0
2017-Jan-10 16:28N 43°35' E 010°18'0 0.0
2017-Jan-10 15:25N 43°35' E 010°18'0 0.0
2017-Jan-10 14:31N 43°35' E 010°18'0 0.0
2017-Jan-10 13:28N 43°35' E 010°18'0 0.0
2017-Jan-10 12:31N 43°35' E 010°18'0 0.0
2017-Jan-10 11:31N 43°35' E 010°18'0 0.0
2017-Jan-10 10:31N 43°35' E 010°18'0 0.0
2017-Jan-10 09:31N 43°35' E 010°18'0 0.0
2017-Jan-10 08:31N 43°35' E 010°18'0 0.0
2017-Jan-10 07:25N 43°35' E 010°18'0 0.0
2017-Jan-10 06:31N 43°35' E 010°18'0 0.0
2017-Jan-10 05:31N 43°35' E 010°18'0 0.0
2017-Jan-10 04:31N 43°35' E 010°18'0 0.0
2017-Jan-10 03:31N 43°35' E 010°18'0 0.0
2017-Jan-10 02:31N 43°35' E 010°18'0 0.0
2017-Jan-10 01:28N 43°35' E 010°18'0 0.0
2017-Jan-10 00:31N 43°35' E 010°18'0 0.0
2017-Jan-09 23:31N 43°35' E 010°18'0 0.0
2017-Jan-09 22:31N 43°35' E 010°18'0 0.0
2017-Jan-09 21:31N 43°35' E 010°18'0 0.0
2017-Jan-09 20:31N 43°35' E 010°18'0 0.0
2017-Jan-09 19:28N 43°35' E 010°18'0 0.0
2017-Jan-09 18:31N 43°35' E 010°18'0 0.0
2017-Jan-09 17:28N 43°35' E 010°18'0 0.0
2017-Jan-09 16:31N 43°35' E 010°18'0 0.0
2017-Jan-09 15:31N 43°35' E 010°18'0 0.0
2017-Jan-09 14:28N 43°35' E 010°18'0 0.0
2017-Jan-09 13:31N 43°35' E 010°18'0 0.0
2017-Jan-09 12:31N 43°35' E 010°18'0 0.0
2017-Jan-09 11:28N 43°35' E 010°18'  

Dump ship's entire track history